createdAt,value
2022-08-07T00:01:44.704Z,27.01
2022-08-07T00:04:15.856Z,26.99
2022-08-07T00:06:51.575Z,26.95
2022-08-07T00:09:22.659Z,26.98
2022-08-07T00:11:55.877Z,26.95
2022-08-07T00:14:31.456Z,26.96
2022-08-07T00:17:02.581Z,27.01
2022-08-07T00:19:59.969Z,27.06
2022-08-07T00:22:24.441Z,27.10
2022-08-07T00:25:15.691Z,27.25
2022-08-07T00:27:52.509Z,27.11
2022-08-07T00:30:27.764Z,27.13
2022-08-07T00:32:58.455Z,27.05
2022-08-07T00:35:29.630Z,27.08
2022-08-07T00:38:00.288Z,27.08
2022-08-07T00:40:36.585Z,27.09
2022-08-07T00:43:58.689Z,27.13
2022-08-07T00:46:01.715Z,27.14
2022-08-07T00:48:32.512Z,27.13
2022-08-07T00:51:03.121Z,27.04
2022-08-07T00:53:39.036Z,27.10
2022-08-07T00:56:19.108Z,27.15
2022-08-07T00:58:49.791Z,27.14
2022-08-07T01:01:20.827Z,27.14
2022-08-07T01:03:56.438Z,27.12
2022-08-07T01:06:29.662Z,27.11
2022-08-07T01:09:00.932Z,27.14
2022-08-07T01:12:08.889Z,27.21
2022-08-07T01:14:28.307Z,27.26
2022-08-07T01:16:58.290Z,27.22
2022-08-07T01:19:32.490Z,27.20
2022-08-07T01:22:03.461Z,27.12
2022-08-07T01:24:42.515Z,27.18
2022-08-07T01:27:19.602Z,28.13
2022-08-07T01:29:50.767Z,27.41
2022-08-07T01:32:22.329Z,27.28
2022-08-07T01:34:55.403Z,27.21
2022-08-07T01:37:24.140Z,28.21
2022-08-07T01:39:59.402Z,27.51
2022-08-07T01:42:38.812Z,27.43
2022-08-07T01:45:17.850Z,27.28
2022-08-07T01:48:21.064Z,27.21
2022-08-07T01:50:46.307Z,27.29
2022-08-07T01:53:20.918Z,27.17
2022-08-07T01:56:05.438Z,27.17
2022-08-07T01:58:41.074Z,27.16
2022-08-07T02:01:44.771Z,27.22
2022-08-07T02:04:26.671Z,27.48
2022-08-07T02:07:03.104Z,27.21
2022-08-07T02:09:51.631Z,27.07
2022-08-07T02:12:31.020Z,26.96
2022-08-07T02:15:06.916Z,26.97
2022-08-07T02:17:41.662Z,26.95
2022-08-07T02:20:23.678Z,26.89
2022-08-07T02:23:00.211Z,26.95
2022-08-07T02:26:11.399Z,26.84
2022-08-07T02:28:25.624Z,26.82
2022-08-07T02:31:19.131Z,26.86
2022-08-07T02:34:01.620Z,26.92
2022-08-07T02:36:38.607Z,26.93
2022-08-07T02:39:17.278Z,26.94
2022-08-07T02:42:03.562Z,26.90
2022-08-07T02:44:48.371Z,26.95
2022-08-07T02:47:23.422Z,26.80
2022-08-07T02:50:00.412Z,26.72
2022-08-07T02:52:39.045Z,26.73
2022-08-07T02:55:28.414Z,26.70
2022-08-07T02:58:10.141Z,26.62
2022-08-07T03:00:42.101Z,26.56
2022-08-07T03:03:22.575Z,26.64
2022-08-07T03:05:56.661Z,26.67
2022-08-07T03:08:29.113Z,26.52
2022-08-07T03:11:01.761Z,26.55
2022-08-07T03:13:38.677Z,26.53
2022-08-07T03:16:10.800Z,26.61
2022-08-07T03:18:40.884Z,26.74
2022-08-07T03:21:13.925Z,26.84
2022-08-07T03:24:20.591Z,26.90
2022-08-07T03:26:51.298Z,26.94
2022-08-07T03:29:37.526Z,27.08
2022-08-07T03:32:13.444Z,26.96
2022-08-07T03:34:47.387Z,27.04
2022-08-07T03:37:45.922Z,27.17
2022-08-07T03:40:16.882Z,27.10
2022-08-07T03:42:46.631Z,27.20
2022-08-07T03:45:30.229Z,27.29
2022-08-07T03:48:10.017Z,27.51
2022-08-07T03:50:43.225Z,27.50
2022-08-07T03:53:50.122Z,27.68
2022-08-07T03:56:33.290Z,27.99
2022-08-07T03:59:09.479Z,27.87
2022-08-07T04:01:45.576Z,28.99
2022-08-07T04:04:17.945Z,28.11
2022-08-07T04:06:51.840Z,28.08
2022-08-07T04:09:23.683Z,28.08
2022-08-07T04:12:25.455Z,28.14
2022-08-07T04:14:49.195Z,28.25
2022-08-07T04:17:21.901Z,28.21
2022-08-07T04:19:56.410Z,28.38
2022-08-07T04:22:30.133Z,28.44
2022-08-07T04:25:08.882Z,28.46
2022-08-07T04:27:46.211Z,28.50
2022-08-07T04:30:43.734Z,28.54
2022-08-07T04:33:24.762Z,28.74
2022-08-07T04:35:55.497Z,28.80
2022-08-07T04:38:29.742Z,29.00
2022-08-07T04:40:59.699Z,28.92
2022-08-07T04:44:13.090Z,29.12
2022-08-07T04:47:04.575Z,29.29
2022-08-07T04:49:57.835Z,29.34
2022-08-07T04:52:50.879Z,29.56
2022-08-07T04:58:09.709Z,29.83
2022-08-07T04:59:17.479Z,29.91
2022-08-07T05:01:43.022Z,29.87
2022-08-07T05:04:17.438Z,30.84
2022-08-07T05:07:36.870Z,30.66
2022-08-07T05:10:29.544Z,30.56
2022-08-07T05:14:44.431Z,30.31
2022-08-07T05:15:58.640Z,30.40
2022-08-07T05:18:32.966Z,30.51
2022-08-07T05:21:05.466Z,30.53
2022-08-07T05:23:47.694Z,30.75
2022-08-07T05:26:24.560Z,31.03
2022-08-07T05:29:05.294Z,31.12
2022-08-07T05:31:39.864Z,31.22
2022-08-07T05:34:17.285Z,31.33
2022-08-07T05:36:52.832Z,31.44
2022-08-07T05:40:05.753Z,31.56
2022-08-07T05:42:34.268Z,31.47
2022-08-07T05:45:25.808Z,31.55
2022-08-07T05:48:03.654Z,31.74
2022-08-07T05:50:46.917Z,31.62
2022-08-07T05:54:12.781Z,31.69
2022-08-07T05:56:12.368Z,31.99
2022-08-07T05:58:49.183Z,32.07
2022-08-07T06:01:35.901Z,32.27
2022-08-07T06:04:09.508Z,32.51
2022-08-07T06:06:46.311Z,32.56
2022-08-07T06:09:17.809Z,32.67
2022-08-07T06:11:48.984Z,32.69
2022-08-07T06:14:28.941Z,32.91
2022-08-07T06:17:07.354Z,33.17
2022-08-07T06:19:57.614Z,33.12
2022-08-07T06:22:38.542Z,33.16
2022-08-07T06:25:34.906Z,33.09
2022-08-07T06:28:07.409Z,33.31
2022-08-07T06:30:42.688Z,33.45
2022-08-07T06:33:19.412Z,33.60
2022-08-07T06:36:13.488Z,33.51
2022-08-07T06:38:51.207Z,33.79
2022-08-07T06:42:02.477Z,33.89
2022-08-07T06:44:36.787Z,33.84
2022-08-07T06:47:12.151Z,33.98
2022-08-07T06:49:52.395Z,35.11
2022-08-07T06:52:37.670Z,34.70
2022-08-07T06:55:33.474Z,34.61
2022-08-07T06:58:10.956Z,34.66
2022-08-07T07:00:53.912Z,34.84
2022-08-07T07:03:39.647Z,34.89
2022-08-07T07:06:13.552Z,34.87
2022-08-07T07:08:52.980Z,34.95
2022-08-07T07:12:08.868Z,34.95
2022-08-07T07:14:14.113Z,35.03
2022-08-07T07:16:51.066Z,35.14
2022-08-07T07:19:55.895Z,35.36
2022-08-07T07:22:36.930Z,36.48
2022-08-07T07:26:31.280Z,35.66
2022-08-07T07:28:29.482Z,35.61
2022-08-07T07:31:01.585Z,35.71
2022-08-07T07:33:34.416Z,35.72
2022-08-07T07:36:05.291Z,35.80
2022-08-07T07:38:36.063Z,35.99
2022-08-07T07:41:09.387Z,36.17
2022-08-07T07:44:14.203Z,36.41
2022-08-07T07:46:54.694Z,36.58
2022-08-07T07:50:35.772Z,36.33
2022-08-07T07:52:19.279Z,36.40
2022-08-07T07:54:50.552Z,36.42
2022-08-07T07:57:50.296Z,36.64
2022-08-07T08:00:29.075Z,36.86
2022-08-07T08:03:08.257Z,36.87
2022-08-07T08:05:50.786Z,36.84
2022-08-07T08:08:34.327Z,36.97
2022-08-07T08:11:16.100Z,37.07
2022-08-07T08:13:53.909Z,37.12
2022-08-07T08:16:31.018Z,37.33
2022-08-07T08:19:17.312Z,37.27
2022-08-07T08:22:08.108Z,37.30
2022-08-07T08:25:24.570Z,37.64
2022-08-07T08:28:04.058Z,37.53
2022-08-07T08:30:42.623Z,37.81
2022-08-07T08:33:21.993Z,38.11
2022-08-07T08:35:56.090Z,38.02
2022-08-07T08:38:38.131Z,38.12
2022-08-07T08:41:21.717Z,38.06
2022-08-07T08:44:09.899Z,38.04
2022-08-07T08:47:10.005Z,38.78
2022-08-07T08:50:04.829Z,38.82
2022-08-07T08:52:40.889Z,38.77
2022-08-07T08:55:58.579Z,39.79
2022-08-07T08:58:30.756Z,39.36
2022-08-07T09:01:16.178Z,39.92
2022-08-07T09:04:08.749Z,41.24
2022-08-07T09:07:24.465Z,43.36
2022-08-07T09:10:17.848Z,44.54
2022-08-07T09:13:07.287Z,46.11
2022-08-07T09:16:22.154Z,46.55
2022-08-07T09:18:34.941Z,47.96
2022-08-07T09:21:57.705Z,49.11
2022-08-07T09:24:55.124Z,49.23
2022-08-07T09:28:00.585Z,49.37
2022-08-07T09:30:46.746Z,50.10
2022-08-07T09:33:53.187Z,50.43
2022-08-07T09:36:37.511Z,51.77
2022-08-07T09:39:53.988Z,51.61
2022-08-07T09:42:58.233Z,52.23
2022-08-07T09:47:50.136Z,51.39
2022-08-07T09:50:01.257Z,51.75
2022-08-07T09:52:34.295Z,51.67
2022-08-07T09:55:29.426Z,52.78
2022-08-07T09:58:32.389Z,53.06
2022-08-07T10:01:51.500Z,52.60
2022-08-07T10:04:38.410Z,53.23
2022-08-07T10:07:24.470Z,53.16
2022-08-07T10:10:20.979Z,52.08
2022-08-07T10:12:53.625Z,52.01
2022-08-07T10:15:44.597Z,52.42
2022-08-07T10:18:35.274Z,52.48
2022-08-07T10:22:14.841Z,52.30
2022-08-07T10:24:33.663Z,51.75
2022-08-07T10:27:18.348Z,53.29
2022-08-07T10:30:07.303Z,51.99
2022-08-07T10:33:00.054Z,52.48
2022-08-07T10:36:11.468Z,52.83
2022-08-07T10:39:04.358Z,52.96
2022-08-07T10:41:46.495Z,52.91
2022-08-07T10:44:38.337Z,52.93
2022-08-07T10:47:16.295Z,52.74
2022-08-07T10:50:29.145Z,52.79
2022-08-07T10:53:28.450Z,51.92
2022-08-07T10:56:33.185Z,52.01
2022-08-07T10:59:24.661Z,52.29
2022-08-07T11:02:34.341Z,52.37
2022-08-07T11:05:21.796Z,52.52
2022-08-07T11:08:11.938Z,52.79
2022-08-07T11:10:59.402Z,52.45
2022-08-07T11:14:45.363Z,52.73
2022-08-07T11:16:30.702Z,52.57
2022-08-07T11:19:10.291Z,52.86
2022-08-07T11:22:33.309Z,53.48
2022-08-07T11:25:23.511Z,53.13
2022-08-07T11:28:04.467Z,52.86
2022-08-07T11:30:49.306Z,53.29
2022-08-07T11:33:54.354Z,53.38
2022-08-07T11:36:30.990Z,52.95
2022-08-07T11:39:39.698Z,53.76
2022-08-07T11:42:29.770Z,53.02
2022-08-07T11:45:20.533Z,52.43
2022-08-07T11:48:18.282Z,53.24
2022-08-07T11:51:22.893Z,52.68
2022-08-07T11:54:25.293Z,52.81
2022-08-07T11:58:00.792Z,53.43
2022-08-07T12:00:32.172Z,52.96
2022-08-07T12:03:41.348Z,52.48
2022-08-07T12:06:38.857Z,52.21
2022-08-07T12:09:38.354Z,53.42
2022-08-07T12:12:18.797Z,52.81
2022-08-07T12:15:00.588Z,52.38
2022-08-07T12:17:59.479Z,52.71
2022-08-07T12:20:38.597Z,52.70
2022-08-07T12:24:07.237Z,53.42
2022-08-07T12:26:46.595Z,53.30
2022-08-07T12:29:37.908Z,52.71
2022-08-07T12:32:15.326Z,52.61
2022-08-07T12:34:49.148Z,51.85
2022-08-07T12:37:23.316Z,51.48
2022-08-07T12:39:55.381Z,52.23
2022-08-07T12:42:32.035Z,51.79
2022-08-07T12:45:09.536Z,51.78
2022-08-07T12:47:54.042Z,51.86
2022-08-07T12:50:40.360Z,51.84
2022-08-07T12:54:03.078Z,53.10
2022-08-07T12:56:55.022Z,52.51
2022-08-07T12:59:33.031Z,52.03
2022-08-07T13:02:33.316Z,52.02
2022-08-07T13:06:04.043Z,52.11
2022-08-07T13:10:10.945Z,51.32
2022-08-07T13:12:40.993Z,51.88
2022-08-07T13:15:29.579Z,50.91
2022-08-07T13:18:10.970Z,51.40
2022-08-07T13:21:13.902Z,50.59
2022-08-07T13:24:04.655Z,50.51
2022-08-07T13:26:46.231Z,50.31
2022-08-07T13:29:25.258Z,50.09
2022-08-07T13:32:15.287Z,49.97
2022-08-07T13:35:03.250Z,49.69
2022-08-07T13:37:55.422Z,50.03
2022-08-07T13:40:34.946Z,49.65
2022-08-07T13:43:13.826Z,49.35
2022-08-07T13:46:12.042Z,49.10
2022-08-07T13:48:39.681Z,48.81
2022-08-07T13:51:28.153Z,48.74
2022-08-07T13:54:03.283Z,48.83
2022-08-07T13:56:40.879Z,48.80
2022-08-07T13:59:17.881Z,48.70
2022-08-07T14:02:03.862Z,48.22
2022-08-07T14:04:48.992Z,48.18
2022-08-07T14:07:22.816Z,48.18
2022-08-07T14:10:12.608Z,48.59
2022-08-07T14:12:56.360Z,48.56
2022-08-07T14:15:35.112Z,47.86
2022-08-07T14:18:32.549Z,48.22
2022-08-07T14:22:01.286Z,48.51
2022-08-07T14:24:14.033Z,48.10
2022-08-07T14:26:51.815Z,48.31
2022-08-07T14:30:05.723Z,48.06
2022-08-07T14:32:19.140Z,47.60
2022-08-07T14:34:49.534Z,46.91
2022-08-07T14:37:39.077Z,46.80
2022-08-07T14:40:26.574Z,46.55
2022-08-07T14:43:58.983Z,46.75
2022-08-07T14:45:57.615Z,46.32
2022-08-07T14:48:32.632Z,46.07
2022-08-07T14:54:30.077Z,45.33
2022-08-07T14:56:50.885Z,44.98
2022-08-07T15:00:04.311Z,44.76
2022-08-07T15:05:19.779Z,43.27
2022-08-07T15:07:51.832Z,43.20
2022-08-07T15:10:29.647Z,43.25
2022-08-07T15:13:25.427Z,43.35
2022-08-07T15:19:00.714Z,42.83
2022-08-07T15:21:43.730Z,42.70
2022-08-07T15:27:22.397Z,42.65
2022-08-07T15:30:10.332Z,42.41
2022-08-07T15:32:50.883Z,42.16
2022-08-07T15:36:00.517Z,42.08
2022-08-07T15:38:51.919Z,41.97
2022-08-07T15:42:44.164Z,41.68
2022-08-07T15:44:15.521Z,41.37
2022-08-07T15:50:04.877Z,40.88
2022-08-07T15:52:30.006Z,40.73
2022-08-07T15:55:09.069Z,40.48
2022-08-07T15:57:48.747Z,40.22
2022-08-07T16:00:31.662Z,40.06
2022-08-07T16:03:20.457Z,39.98
2022-08-07T16:05:53.305Z,39.76
2022-08-07T16:08:32.552Z,39.56
2022-08-07T16:11:26.831Z,39.31
2022-08-07T16:14:22.450Z,39.28
2022-08-07T16:17:15.961Z,39.35
2022-08-07T16:19:58.730Z,40.13
2022-08-07T16:22:38.048Z,39.04
2022-08-07T16:25:23.266Z,38.73
2022-08-07T16:30:05.491Z,38.61
2022-08-07T16:31:58.215Z,38.43
2022-08-07T16:34:57.210Z,38.35
2022-08-07T16:38:05.673Z,37.78
2022-08-07T16:41:02.812Z,37.71
2022-08-07T16:44:05.604Z,37.09
2022-08-07T16:47:05.765Z,37.07
2022-08-07T16:50:20.280Z,37.18
2022-08-07T16:53:09.820Z,36.44
2022-08-07T16:55:47.914Z,36.26
2022-08-07T16:59:02.278Z,36.42
2022-08-07T17:01:34.288Z,37.29
2022-08-07T17:04:27.651Z,36.16
2022-08-07T17:07:28.564Z,35.89
2022-08-07T17:10:54.373Z,35.85
2022-08-07T17:14:19.386Z,35.65
2022-08-07T17:17:04.949Z,35.36
2022-08-07T17:20:01.913Z,35.11
2022-08-07T17:23:17.115Z,35.25
2022-08-07T17:26:04.311Z,34.77
2022-08-07T17:28:49.687Z,34.56
2022-08-07T17:31:24.119Z,34.63
2022-08-07T17:34:34.647Z,34.68
2022-08-07T17:37:09.830Z,34.47
2022-08-07T17:40:05.465Z,34.48
2022-08-07T17:42:58.225Z,34.14
2022-08-07T17:45:42.199Z,34.46
2022-08-07T17:48:30.655Z,34.32
2022-08-07T17:51:02.892Z,34.02
2022-08-07T17:54:00.079Z,34.06
2022-08-07T17:56:35.501Z,33.81
2022-08-07T17:59:10.632Z,33.90
2022-08-07T18:02:09.130Z,34.08
2022-08-07T18:05:21.571Z,33.88
2022-08-07T18:08:23.890Z,34.05
2022-08-07T18:12:06.698Z,33.98
2022-08-07T18:14:37.606Z,33.89
2022-08-07T18:18:33.204Z,33.57
2022-08-07T18:21:03.778Z,33.46
2022-08-07T18:23:41.888Z,33.52
2022-08-07T18:26:05.381Z,33.38
2022-08-07T18:30:06.950Z,33.72
2022-08-07T18:32:13.100Z,32.93
2022-08-07T18:35:05.874Z,33.21
2022-08-07T18:38:58.723Z,33.09
2022-08-07T18:40:53.811Z,32.91
2022-08-07T18:43:57.537Z,32.79
2022-08-07T18:46:43.094Z,32.78
2022-08-07T18:50:31.640Z,32.96
2022-08-07T18:52:41.017Z,32.97
2022-08-07T18:55:43.305Z,32.82
2022-08-07T18:58:51.851Z,33.01
2022-08-07T19:02:18.324Z,32.79
2022-08-07T19:05:10.031Z,32.89
2022-08-07T19:08:05.231Z,32.71
2022-08-07T19:10:49.902Z,32.52
2022-08-07T19:13:29.265Z,32.51
2022-08-07T19:17:05.086Z,32.72
2022-08-07T19:19:28.066Z,32.28
2022-08-07T19:22:08.267Z,32.49
2022-08-07T19:24:48.798Z,32.35
2022-08-07T19:28:58.102Z,32.22
2022-08-07T19:31:02.940Z,32.22
2022-08-07T19:33:13.129Z,32.35
2022-08-07T19:35:55.122Z,32.34
2022-08-07T19:38:29.052Z,32.09
2022-08-07T19:41:03.486Z,31.95
2022-08-07T19:43:49.977Z,31.86
2022-08-07T19:46:26.622Z,31.98
2022-08-07T19:49:05.727Z,31.93
2022-08-07T19:51:53.079Z,31.84
2022-08-07T19:54:31.146Z,31.74
2022-08-07T19:58:03.628Z,31.74
2022-08-07T20:00:10.603Z,32.05
2022-08-07T20:02:51.849Z,31.88
2022-08-07T20:05:30.290Z,31.90
2022-08-07T20:08:31.733Z,31.98
2022-08-07T20:11:27.011Z,32.10
2022-08-07T20:14:20.937Z,31.69
2022-08-07T20:17:02.649Z,31.70
2022-08-07T20:19:48.234Z,31.67
2022-08-07T20:22:34.233Z,31.65
2022-08-07T20:25:19.377Z,31.59
2022-08-07T20:27:54.378Z,31.56
2022-08-07T20:30:39.837Z,31.77
2022-08-07T20:33:36.700Z,31.52
2022-08-07T20:36:10.150Z,31.47
2022-08-07T20:38:59.927Z,31.41
2022-08-07T20:41:34.198Z,31.44
2022-08-07T20:44:26.237Z,31.37
2022-08-07T20:47:05.420Z,31.35
2022-08-07T20:49:59.987Z,31.26
2022-08-07T20:52:50.404Z,31.20
2022-08-07T20:55:16.274Z,31.23
2022-08-07T20:58:02.904Z,31.16
2022-08-07T21:00:44.683Z,31.15
2022-08-07T21:03:25.564Z,31.11
2022-08-07T21:06:28.091Z,31.40
2022-08-07T21:09:15.118Z,31.04
2022-08-07T21:11:49.978Z,30.85
2022-08-07T21:14:33.040Z,30.94
2022-08-07T21:18:17.525Z,30.92
2022-08-07T21:20:04.995Z,30.69
2022-08-07T21:22:51.384Z,30.90
2022-08-07T21:25:45.030Z,31.02
2022-08-07T21:28:48.961Z,30.94
2022-08-07T21:31:49.159Z,30.65
2022-08-07T21:34:48.987Z,30.71
2022-08-07T21:37:26.455Z,30.53
2022-08-07T21:40:36.082Z,30.67
2022-08-07T21:43:55.976Z,30.78
2022-08-07T21:46:33.171Z,30.30
2022-08-07T21:49:27.763Z,30.45
2022-08-07T21:52:13.617Z,30.48
2022-08-07T21:55:02.838Z,30.50
2022-08-07T21:57:44.781Z,30.25
2022-08-07T22:00:25.462Z,30.05
2022-08-07T22:03:03.630Z,29.81
2022-08-07T22:05:48.324Z,29.95
2022-08-07T22:08:22.022Z,29.84
2022-08-07T22:11:00.670Z,29.90
2022-08-07T22:13:51.848Z,29.75
2022-08-07T22:16:53.675Z,30.21
2022-08-07T22:19:44.461Z,29.73
2022-08-07T22:22:29.333Z,29.85
2022-08-07T22:25:12.124Z,29.83
2022-08-07T22:28:06.413Z,29.59
2022-08-07T22:30:55.105Z,29.91
2022-08-07T22:33:52.598Z,29.72
2022-08-07T22:36:38.514Z,29.94
2022-08-07T22:39:39.546Z,29.85
2022-08-07T22:42:25.963Z,29.61
2022-08-07T22:45:03.693Z,29.58
2022-08-07T22:47:38.787Z,29.66
2022-08-07T22:50:07.495Z,29.42
2022-08-07T22:52:57.538Z,29.61
2022-08-07T22:55:46.110Z,29.33
2022-08-07T22:58:37.604Z,29.67
2022-08-07T23:01:42.045Z,29.33
2022-08-07T23:04:58.320Z,29.69
2022-08-07T23:07:54.086Z,29.65
2022-08-07T23:10:38.597Z,29.48
2022-08-07T23:13:48.769Z,29.56
2022-08-07T23:16:55.401Z,29.42
2022-08-07T23:19:52.117Z,29.21
2022-08-07T23:22:32.953Z,29.28
2022-08-07T23:25:29.478Z,29.45
2022-08-07T23:28:22.805Z,29.46
2022-08-07T23:32:49.464Z,29.52
2022-08-07T23:34:38.273Z,29.28
2022-08-07T23:37:23.923Z,29.22
2022-08-07T23:40:30.285Z,29.47
2022-08-07T23:43:16.704Z,29.01
2022-08-07T23:46:10.963Z,29.12
2022-08-07T23:49:24.410Z,29.39
2022-08-07T23:52:57.952Z,30.02
2022-08-07T23:55:53.635Z,29.08
2022-08-07T23:58:44.188Z,28.68
